sensor_id;sensor_type;location;lat;lon;timestamp;pressure;altitude;pressure_sealevel;temperature;humidity
49611;BME280;35515;48.766;9.176;2023-04-08T00:00:52;98616.91;;;8.69;95.83
49611;BME280;35515;48.766;9.176;2023-04-08T00:03:19;98618.44;;;8.78;94.86
49611;BME280;35515;48.766;9.176;2023-04-08T00:05:46;98610.72;;;8.75;94.94
49611;BME280;35515;48.766;9.176;2023-04-08T00:08:12;98622.81;;;8.79;94.85
49611;BME280;35515;48.766;9.176;2023-04-08T00:10:39;98609.91;;;8.75;94.79
49611;BME280;35515;48.766;9.176;2023-04-08T00:13:05;98622.31;;;8.69;94.78
49611;BME280;35515;48.766;9.176;2023-04-08T00:15:32;98625.25;;;8.74;94.82
49611;BME280;35515;48.766;9.176;2023-04-08T00:18:00;98627.06;;;8.67;95.14
49611;BME280;35515;48.766;9.176;2023-04-08T00:20:26;98622.03;;;8.64;95.76
49611;BME280;35515;48.766;9.176;2023-04-08T00:22:53;98619.78;;;8.67;95.33
49611;BME280;35515;48.766;9.176;2023-04-08T00:25:19;98620.38;;;8.63;95.42
49611;BME280;35515;48.766;9.176;2023-04-08T00:27:46;98619.97;;;8.66;95.30
49611;BME280;35515;48.766;9.176;2023-04-08T00:30:12;98618.69;;;8.62;95.54
49611;BME280;35515;48.766;9.176;2023-04-08T00:32:39;98619.97;;;8.66;95.26
49611;BME280;35515;48.766;9.176;2023-04-08T00:35:08;98618.22;;;8.58;95.71
49611;BME280;35515;48.766;9.176;2023-04-08T00:37:34;98619.63;;;8.69;95.33
49611;BME280;35515;48.766;9.176;2023-04-08T00:40:01;98621.00;;;8.65;95.22
49611;BME280;35515;48.766;9.176;2023-04-08T00:42:29;98621.31;;;8.55;96.25
49611;BME280;35515;48.766;9.176;2023-04-08T00:44:56;98631.81;;;8.65;95.46
49611;BME280;35515;48.766;9.176;2023-04-08T00:47:22;98636.75;;;8.61;95.11
49611;BME280;35515;48.766;9.176;2023-04-08T00:49:50;98633.28;;;8.67;95.51
49611;BME280;35515;48.766;9.176;2023-04-08T00:52:18;98642.25;;;8.38;97.56
49611;BME280;35515;48.766;9.176;2023-04-08T00:54:45;98636.66;;;8.40;96.80
49611;BME280;35515;48.766;9.176;2023-04-08T00:57:11;98643.72;;;8.41;97.64
49611;BME280;35515;48.766;9.176;2023-04-08T00:59:38;98644.03;;;8.46;96.62
49611;BME280;35515;48.766;9.176;2023-04-08T01:02:11;98637.03;;;8.36;97.60
49611;BME280;35515;48.766;9.176;2023-04-08T01:04:47;98636.28;;;8.43;97.30
49611;BME280;35515;48.766;9.176;2023-04-08T01:07:22;98641.81;;;8.49;96.18
49611;BME280;35515;48.766;9.176;2023-04-08T01:09:53;98633.91;;;8.48;96.34
49611;BME280;35515;48.766;9.176;2023-04-08T01:12:24;98637.03;;;8.51;95.82
49611;BME280;35515;48.766;9.176;2023-04-08T01:14:57;98637.81;;;8.45;96.50
49611;BME280;35515;48.766;9.176;2023-04-08T01:17:25;98633.03;;;8.47;95.79
49611;BME280;35515;48.766;9.176;2023-04-08T01:19:53;98642.50;;;8.43;96.35
49611;BME280;35515;48.766;9.176;2023-04-08T01:22:28;98645.13;;;8.51;95.23
49611;BME280;35515;48.766;9.176;2023-04-08T01:25:04;98634.41;;;8.58;94.89
49611;BME280;35515;48.766;9.176;2023-04-08T01:27:34;98638.78;;;8.44;95.23
49611;BME280;35515;48.766;9.176;2023-04-08T01:30:04;98638.25;;;8.49;94.96
49611;BME280;35515;48.766;9.176;2023-04-08T01:32:33;98640.94;;;8.49;95.38
49611;BME280;35515;48.766;9.176;2023-04-08T01:35:01;98643.03;;;8.47;95.44
49611;BME280;35515;48.766;9.176;2023-04-08T01:37:29;98638.13;;;8.42;95.71
49611;BME280;35515;48.766;9.176;2023-04-08T01:39:56;98640.75;;;8.35;95.94
49611;BME280;35515;48.766;9.176;2023-04-08T01:42:24;98640.13;;;8.33;95.79
49611;BME280;35515;48.766;9.176;2023-04-08T01:44:56;98634.06;;;8.31;96.59
49611;BME280;35515;48.766;9.176;2023-04-08T01:47:23;98633.72;;;8.49;94.78
49611;BME280;35515;48.766;9.176;2023-04-08T01:49:51;98640.50;;;8.45;94.48
49611;BME280;35515;48.766;9.176;2023-04-08T01:52:19;98637.50;;;8.40;95.00
49611;BME280;35515;48.766;9.176;2023-04-08T01:54:48;98640.94;;;8.34;95.83
49611;BME280;35515;48.766;9.176;2023-04-08T01:57:18;98638.44;;;8.47;94.69
49611;BME280;35515;48.766;9.176;2023-04-08T01:59:50;98634.53;;;8.35;94.83
49611;BME280;35515;48.766;9.176;2023-04-08T02:02:19;98634.53;;;8.35;95.71
49611;BME280;35515;48.766;9.176;2023-04-08T02:04:47;98641.50;;;8.29;95.55
49611;BME280;35515;48.766;9.176;2023-04-08T02:07:14;98637.69;;;8.24;96.06
49611;BME280;35515;48.766;9.176;2023-04-08T02:09:42;98641.72;;;8.28;96.25
49611;BME280;35515;48.766;9.176;2023-04-08T02:12:08;98642.72;;;8.27;96.09
49611;BME280;35515;48.766;9.176;2023-04-08T02:14:35;98640.66;;;8.29;95.96
49611;BME280;35515;48.766;9.176;2023-04-08T02:17:08;98640.38;;;8.24;96.19
49611;BME280;35515;48.766;9.176;2023-04-08T02:19:40;98643.56;;;8.27;96.16
49611;BME280;35515;48.766;9.176;2023-04-08T02:22:15;98640.66;;;8.29;95.87
49611;BME280;35515;48.766;9.176;2023-04-08T02:24:43;98639.25;;;8.33;95.61
49611;BME280;35515;48.766;9.176;2023-04-08T02:27:10;98637.25;;;8.20;96.66
49611;BME280;35515;48.766;9.176;2023-04-08T02:29:39;98642.81;;;8.18;96.99
49611;BME280;35515;48.766;9.176;2023-04-08T02:32:07;98639.94;;;8.20;96.86
49611;BME280;35515;48.766;9.176;2023-04-08T02:34:38;98641.03;;;8.26;95.56
49611;BME280;35515;48.766;9.176;2023-04-08T02:37:06;98639.94;;;8.20;96.21
49611;BME280;35515;48.766;9.176;2023-04-08T02:39:33;98637.16;;;8.13;97.33
49611;BME280;35515;48.766;9.176;2023-04-08T02:42:00;98639.84;;;8.13;97.44
49611;BME280;35515;48.766;9.176;2023-04-08T02:44:26;98640.84;;;8.12;97.84
49611;BME280;35515;48.766;9.176;2023-04-08T02:46:53;98634.63;;;8.12;97.08
49611;BME280;35515;48.766;9.176;2023-04-08T02:49:20;98634.44;;;8.13;97.08
49611;BME280;35515;48.766;9.176;2023-04-08T02:51:48;98642.16;;;8.16;96.44
49611;BME280;35515;48.766;9.176;2023-04-08T02:54:14;98637.41;;;8.03;97.26
49611;BME280;35515;48.766;9.176;2023-04-08T02:56:41;98644.94;;;8.08;97.64
49611;BME280;35515;48.766;9.176;2023-04-08T02:59:07;98637.50;;;8.10;97.45
49611;BME280;35515;48.766;9.176;2023-04-08T03:01:34;98640.38;;;8.09;97.68
49611;BME280;35515;48.766;9.176;2023-04-08T03:04:00;98636.28;;;8.13;96.70
49611;BME280;35515;48.766;9.176;2023-04-08T03:06:27;98639.56;;;8.08;96.96
49611;BME280;35515;48.766;9.176;2023-04-08T03:08:55;98633.88;;;8.03;97.21
49611;BME280;35515;48.766;9.176;2023-04-08T03:11:21;98631.66;;;8.07;97.18
49611;BME280;35515;48.766;9.176;2023-04-08T03:13:48;98639.47;;;8.01;97.25
49611;BME280;35515;48.766;9.176;2023-04-08T03:16:14;98638.59;;;8.01;97.65
49611;BME280;35515;48.766;9.176;2023-04-08T03:18:41;98638.69;;;8.08;96.63
49611;BME280;35515;48.766;9.176;2023-04-08T03:21:08;98636.75;;;8.01;96.80
49611;BME280;35515;48.766;9.176;2023-04-08T03:23:35;98636.56;;;8.03;96.30
49611;BME280;35515;48.766;9.176;2023-04-08T03:26:03;98637.50;;;8.10;95.47
49611;BME280;35515;48.766;9.176;2023-04-08T03:28:29;98636.00;;;8.08;95.57
49611;BME280;35515;48.766;9.176;2023-04-08T03:30:56;98637.78;;;8.00;96.45
49611;BME280;35515;48.766;9.176;2023-04-08T03:33:22;98637.31;;;7.97;96.39
49611;BME280;35515;48.766;9.176;2023-04-08T03:35:49;98640.38;;;7.94;96.42
49611;BME280;35515;48.766;9.176;2023-04-08T03:38:15;98641.03;;;7.96;96.57
49611;BME280;35515;48.766;9.176;2023-04-08T03:40:42;98648.94;;;7.97;96.56
49611;BME280;35515;48.766;9.176;2023-04-08T03:43:10;98640.38;;;7.94;96.86
49611;BME280;35515;48.766;9.176;2023-04-08T03:45:37;98642.53;;;8.13;95.15
49611;BME280;35515;48.766;9.176;2023-04-08T03:48:04;98641.69;;;8.13;94.20
49611;BME280;35515;48.766;9.176;2023-04-08T03:50:30;98644.56;;;8.11;94.54
49611;BME280;35515;48.766;9.176;2023-04-08T03:52:57;98645.41;;;7.97;95.11
49611;BME280;35515;48.766;9.176;2023-04-08T03:55:24;98642.06;;;7.95;95.62
49611;BME280;35515;48.766;9.176;2023-04-08T03:57:50;98644.66;;;8.03;94.65
49611;BME280;35515;48.766;9.176;2023-04-08T04:00:18;98644.38;;;7.98;94.90
49611;BME280;35515;48.766;9.176;2023-04-08T04:02:44;98638.50;;;7.94;95.54
49611;BME280;35515;48.766;9.176;2023-04-08T04:05:11;98650.78;;;7.97;95.29
49611;BME280;35515;48.766;9.176;2023-04-08T04:07:37;98643.66;;;8.04;95.00
49611;BME280;35515;48.766;9.176;2023-04-08T04:10:05;98649.78;;;7.98;94.94
49611;BME280;35515;48.766;9.176;2023-04-08T04:12:32;98646.44;;;7.96;94.86
49611;BME280;35515;48.766;9.176;2023-04-08T04:14:58;98642.44;;;8.07;94.06
49611;BME280;35515;48.766;9.176;2023-04-08T04:17:26;98651.47;;;7.99;94.91
49611;BME280;35515;48.766;9.176;2023-04-08T04:19:53;98652.84;;;7.95;95.19
49611;BME280;35515;48.766;9.176;2023-04-08T04:22:19;98645.34;;;8.05;94.78
49611;BME280;35515;48.766;9.176;2023-04-08T04:24:46;98647.66;;;8.08;94.48
49611;BME280;35515;48.766;9.176;2023-04-08T04:27:13;98646.53;;;8.02;94.55
49611;BME280;35515;48.766;9.176;2023-04-08T04:29:41;98643.19;;;8.00;94.79
49611;BME280;35515;48.766;9.176;2023-04-08T04:32:08;98649.78;;;7.98;95.03
49611;BME280;35515;48.766;9.176;2023-04-08T04:34:36;98650.34;;;7.93;95.05
49611;BME280;35515;48.766;9.176;2023-04-08T04:37:02;98650.25;;;7.86;95.88
49611;BME280;35515;48.766;9.176;2023-04-08T04:39:29;98661.03;;;7.86;95.92
49611;BME280;35515;48.766;9.176;2023-04-08T04:41:56;98656.09;;;7.90;96.37
49611;BME280;35515;48.766;9.176;2023-04-08T04:44:22;98659.78;;;7.74;96.92
49611;BME280;35515;48.766;9.176;2023-04-08T04:46:49;98653.97;;;7.85;96.80
49611;BME280;35515;48.766;9.176;2023-04-08T04:49:15;98657.59;;;7.93;95.71
49611;BME280;35515;48.766;9.176;2023-04-08T04:51:43;98659.19;;;8.02;95.15
49611;BME280;35515;48.766;9.176;2023-04-08T04:54:10;98655.28;;;8.04;94.87
49611;BME280;35515;48.766;9.176;2023-04-08T04:56:36;98660.47;;;7.91;96.42
49611;BME280;35515;48.766;9.176;2023-04-08T04:59:03;98671.44;;;7.75;96.91
49611;BME280;35515;48.766;9.176;2023-04-08T05:01:30;98672.34;;;7.67;97.96
49611;BME280;35515;48.766;9.176;2023-04-08T05:03:56;98672.03;;;7.62;97.59
49611;BME280;35515;48.766;9.176;2023-04-08T05:06:23;98675.09;;;7.59;98.12
49611;BME280;35515;48.766;9.176;2023-04-08T05:08:52;98683.66;;;7.62;98.01
49611;BME280;35515;48.766;9.176;2023-04-08T05:11:18;98682.81;;;7.62;98.59
49611;BME280;35515;48.766;9.176;2023-04-08T05:13:46;98683.00;;;7.60;97.94
49611;BME280;35515;48.766;9.176;2023-04-08T05:16:12;98690.28;;;7.60;98.80
49611;BME280;35515;48.766;9.176;2023-04-08T05:18:39;98691.91;;;7.61;98.50
49611;BME280;35515;48.766;9.176;2023-04-08T05:21:05;98694.19;;;7.72;97.63
49611;BME280;35515;48.766;9.176;2023-04-08T05:23:33;98685.81;;;7.67;98.64
49611;BME280;35515;48.766;9.176;2023-04-08T05:26:01;98692.59;;;7.63;98.83
49611;BME280;35515;48.766;9.176;2023-04-08T05:28:27;98695.88;;;7.73;97.74
49611;BME280;35515;48.766;9.176;2023-04-08T05:30:54;98694.78;;;7.82;96.90
49611;BME280;35515;48.766;9.176;2023-04-08T05:33:20;98696.59;;;7.67;98.05
49611;BME280;35515;48.766;9.176;2023-04-08T05:35:47;98694.28;;;7.64;98.76
49611;BME280;35515;48.766;9.176;2023-04-08T05:38:13;98699.22;;;7.75;97.46
49611;BME280;35515;48.766;9.176;2023-04-08T05:40:40;98705.72;;;7.66;98.38
49611;BME280;35515;48.766;9.176;2023-04-08T05:43:08;98711.28;;;7.64;98.63
49611;BME280;35515;48.766;9.176;2023-04-08T05:45:34;98719.22;;;7.81;97.17
49611;BME280;35515;48.766;9.176;2023-04-08T05:48:01;98707.13;;;7.77;97.14
49611;BME280;35515;48.766;9.176;2023-04-08T05:50:27;98712.78;;;7.67;98.16
49611;BME280;35515;48.766;9.176;2023-04-08T05:52:54;98720.81;;;7.75;97.70
49611;BME280;35515;48.766;9.176;2023-04-08T05:55:20;98715.22;;;7.77;97.71
49611;BME280;35515;48.766;9.176;2023-04-08T05:57:47;98720.91;;;7.82;96.78
49611;BME280;35515;48.766;9.176;2023-04-08T06:00:15;98720.44;;;7.78;96.74
49611;BME280;35515;48.766;9.176;2023-04-08T06:02:42;98728.13;;;7.66;98.28
49611;BME280;35515;48.766;9.176;2023-04-08T06:05:08;98723.31;;;7.77;98.09
49611;BME280;35515;48.766;9.176;2023-04-08T06:07:35;98731.00;;;7.65;99.12
49611;BME280;35515;48.766;9.176;2023-04-08T06:10:02;98737.34;;;7.72;98.84
49611;BME280;35515;48.766;9.176;2023-04-08T06:12:29;98730.56;;;7.76;98.09
49611;BME280;35515;48.766;9.176;2023-04-08T06:14:56;98737.69;;;7.69;98.37
49611;BME280;35515;48.766;9.176;2023-04-08T06:17:24;98733.28;;;7.76;98.47
49611;BME280;35515;48.766;9.176;2023-04-08T06:19:51;98735.91;;;7.84;97.49
49611;BME280;35515;48.766;9.176;2023-04-08T06:22:17;98739.50;;;7.77;97.45
49611;BME280;35515;48.766;9.176;2023-04-08T06:24:45;98744.31;;;8.04;95.87
49611;BME280;35515;48.766;9.176;2023-04-08T06:27:12;98744.00;;;7.84;96.62
49611;BME280;35515;48.766;9.176;2023-04-08T06:29:38;98741.75;;;7.73;97.80
49611;BME280;35515;48.766;9.176;2023-04-08T06:32:05;98741.56;;;7.75;97.48
49611;BME280;35515;48.766;9.176;2023-04-08T06:34:33;98751.72;;;7.64;98.65
49611;BME280;35515;48.766;9.176;2023-04-08T06:37:00;98744.44;;;7.73;98.21
49611;BME280;35515;48.766;9.176;2023-04-08T06:39:26;98752.91;;;7.85;97.21
49611;BME280;35515;48.766;9.176;2023-04-08T06:41:53;98750.78;;;7.80;97.14
49611;BME280;35515;48.766;9.176;2023-04-08T06:44:19;98750.09;;;7.78;97.32
49611;BME280;35515;48.766;9.176;2023-04-08T06:46:46;98748.47;;;7.92;96.02
49611;BME280;35515;48.766;9.176;2023-04-08T06:49:12;98759.97;;;7.86;96.96
49611;BME280;35515;48.766;9.176;2023-04-08T06:51:40;98767.78;;;7.81;96.93
49611;BME280;35515;48.766;9.176;2023-04-08T06:54:07;98760.72;;;7.80;97.29
49611;BME280;35515;48.766;9.176;2023-04-08T06:56:34;98771.53;;;7.80;96.89
49611;BME280;35515;48.766;9.176;2023-04-08T06:59:01;98768.63;;;7.81;97.06
49611;BME280;35515;48.766;9.176;2023-04-08T07:01:27;98772.72;;;7.77;97.26
49611;BME280;35515;48.766;9.176;2023-04-08T07:03:54;98765.94;;;7.81;96.88
49611;BME280;35515;48.766;9.176;2023-04-08T07:06:21;98766.25;;;7.86;96.35
49611;BME280;35515;48.766;9.176;2023-04-08T07:08:48;98767.25;;;7.85;96.15
49611;BME280;35515;48.766;9.176;2023-04-08T07:11:15;98767.19;;;7.94;96.03
49611;BME280;35515;48.766;9.176;2023-04-08T07:13:42;98770.31;;;7.82;96.67
49611;BME280;35515;48.766;9.176;2023-04-08T07:16:08;98773.72;;;7.76;97.38
49611;BME280;35515;48.766;9.176;2023-04-08T07:18:35;98780.75;;;7.85;96.86
49611;BME280;35515;48.766;9.176;2023-04-08T07:21:02;98778.97;;;7.93;95.29
49611;BME280;35515;48.766;9.176;2023-04-08T07:23:38;98779.16;;;7.91;95.47
49611;BME280;35515;48.766;9.176;2023-04-08T07:26:07;98781.19;;;8.12;93.58
49611;BME280;35515;48.766;9.176;2023-04-08T07:28:33;98778.19;;;8.07;94.18
49611;BME280;35515;48.766;9.176;2023-04-08T07:31:08;98776.69;;;8.04;94.53
49611;BME280;35515;48.766;9.176;2023-04-08T07:33:35;98790.66;;;8.08;94.35
49611;BME280;35515;48.766;9.176;2023-04-08T07:36:02;98788.38;;;8.20;93.56
49611;BME280;35515;48.766;9.176;2023-04-08T07:38:28;98778.56;;;8.04;94.36
49611;BME280;35515;48.766;9.176;2023-04-08T07:40:55;98777.47;;;8.13;94.01
49611;BME280;35515;48.766;9.176;2023-04-08T07:43:23;98786.66;;;8.04;95.38
49611;BME280;35515;48.766;9.176;2023-04-08T07:45:49;98792.28;;;8.17;94.57
49611;BME280;35515;48.766;9.176;2023-04-08T07:48:16;98801.56;;;8.15;93.13
49611;BME280;35515;48.766;9.176;2023-04-08T07:50:42;98792.47;;;8.16;92.72
49611;BME280;35515;48.766;9.176;2023-04-08T07:53:10;98797.13;;;8.22;92.06
49611;BME280;35515;48.766;9.176;2023-04-08T07:55:36;98799.75;;;8.30;92.11
49611;BME280;35515;48.766;9.176;2023-04-08T07:58:04;98801.31;;;8.25;92.33
49611;BME280;35515;48.766;9.176;2023-04-08T08:00:32;98793.50;;;8.30;91.89
49611;BME280;35515;48.766;9.176;2023-04-08T08:02:59;98791.53;;;8.24;91.78
49611;BME280;35515;48.766;9.176;2023-04-08T08:05:25;98787.81;;;8.25;91.64
49611;BME280;35515;48.766;9.176;2023-04-08T08:07:52;98792.31;;;8.32;91.37
49611;BME280;35515;48.766;9.176;2023-04-08T08:10:18;98791.19;;;8.42;91.29
49611;BME280;35515;48.766;9.176;2023-04-08T08:12:45;98789.34;;;8.42;90.52
49611;BME280;35515;48.766;9.176;2023-04-08T08:15:11;98792.34;;;8.47;88.98
49611;BME280;35515;48.766;9.176;2023-04-08T08:17:40;98803.06;;;8.56;89.08
49611;BME280;35515;48.766;9.176;2023-04-08T08:20:07;98803.81;;;8.49;89.49
49611;BME280;35515;48.766;9.176;2023-04-08T08:22:34;98803.81;;;8.49;88.82
49611;BME280;35515;48.766;9.176;2023-04-08T08:25:03;98806.72;;;8.63;89.62
49611;BME280;35515;48.766;9.176;2023-04-08T08:27:30;98805.50;;;8.50;87.96
49611;BME280;35515;48.766;9.176;2023-04-08T08:29:58;98813.72;;;8.34;89.17
49611;BME280;35515;48.766;9.176;2023-04-08T08:32:25;98812.22;;;8.55;87.42
49611;BME280;35515;48.766;9.176;2023-04-08T08:34:53;98813.97;;;8.62;85.48
49611;BME280;35515;48.766;9.176;2023-04-08T08:37:19;98814.72;;;8.71;85.35
49611;BME280;35515;48.766;9.176;2023-04-08T08:39:46;98810.16;;;8.57;86.33
49611;BME280;35515;48.766;9.176;2023-04-08T08:42:19;98813.44;;;8.67;86.31
49611;BME280;35515;48.766;9.176;2023-04-08T08:44:46;98819.50;;;8.69;86.68
49611;BME280;35515;48.766;9.176;2023-04-08T08:47:13;98818.53;;;8.77;85.97
49611;BME280;35515;48.766;9.176;2023-04-08T08:49:39;98819.13;;;8.72;85.77
49611;BME280;35515;48.766;9.176;2023-04-08T08:52:07;98811.19;;;8.70;84.77
49611;BME280;35515;48.766;9.176;2023-04-08T08:54:34;98813.16;;;8.92;83.34
49611;BME280;35515;48.766;9.176;2023-04-08T08:57:00;98821.00;;;8.86;82.60
49611;BME280;35515;48.766;9.176;2023-04-08T08:59:27;98812.97;;;8.93;82.26
49611;BME280;35515;48.766;9.176;2023-04-08T09:01:53;98816.03;;;8.90;83.05
49611;BME280;35515;48.766;9.176;2023-04-08T09:04:20;98823.22;;;8.98;82.54
49611;BME280;35515;48.766;9.176;2023-04-08T09:06:48;98822.00;;;9.00;81.66
49611;BME280;35515;48.766;9.176;2023-04-08T09:09:16;98822.81;;;9.01;82.61
49611;BME280;35515;48.766;9.176;2023-04-08T09:11:44;98823.03;;;9.14;80.17
49611;BME280;35515;48.766;9.176;2023-04-08T09:14:18;98817.72;;;9.21;79.51
49611;BME280;35515;48.766;9.176;2023-04-08T09:16:45;98821.34;;;9.13;78.21
49611;BME280;35515;48.766;9.176;2023-04-08T09:19:12;98819.44;;;9.29;77.04
49611;BME280;35515;48.766;9.176;2023-04-08T09:21:38;98822.94;;;9.23;78.14
49611;BME280;35515;48.766;9.176;2023-04-08T09:24:06;98830.19;;;9.37;76.75
49611;BME280;35515;48.766;9.176;2023-04-08T09:26:35;98828.03;;;9.32;76.12
49611;BME280;35515;48.766;9.176;2023-04-08T09:29:03;98828.22;;;9.31;75.76
49611;BME280;35515;48.766;9.176;2023-04-08T09:31:31;98827.75;;;9.27;76.83
49611;BME280;35515;48.766;9.176;2023-04-08T09:33:59;98823.63;;;9.31;75.85
49611;BME280;35515;48.766;9.176;2023-04-08T09:36:27;98831.34;;;9.49;75.95
49611;BME280;35515;48.766;9.176;2023-04-08T09:38:54;98830.03;;;9.60;74.06
49611;BME280;35515;48.766;9.176;2023-04-08T09:41:21;98832.25;;;9.57;75.25
49611;BME280;35515;48.766;9.176;2023-04-08T09:43:52;98834.84;;;9.65;73.61
49611;BME280;35515;48.766;9.176;2023-04-08T09:46:25;98824.22;;;9.63;73.94
49611;BME280;35515;48.766;9.176;2023-04-08T09:49:00;98827.38;;;9.67;72.40
49611;BME280;35515;48.766;9.176;2023-04-08T09:51:31;98818.84;;;9.85;69.64
49611;BME280;35515;48.766;9.176;2023-04-08T09:54:01;98818.91;;;9.92;68.24
49611;BME280;35515;48.766;9.176;2023-04-08T09:56:34;98821.56;;;9.85;69.48
49611;BME280;35515;48.766;9.176;2023-04-08T09:59:08;98821.38;;;9.86;65.76
49611;BME280;35515;48.766;9.176;2023-04-08T10:01:38;98824.69;;;9.88;63.61
49611;BME280;35515;48.766;9.176;2023-04-08T10:04:08;98824.19;;;10.00;60.87
49611;BME280;35515;48.766;9.176;2023-04-08T10:06:37;98822.13;;;10.02;59.07
49611;BME280;35515;48.766;9.176;2023-04-08T10:09:06;98831.78;;;9.90;59.22
49611;BME280;35515;48.766;9.176;2023-04-08T10:11:35;98821.38;;;9.86;60.77
49611;BME280;35515;48.766;9.176;2023-04-08T10:14:03;98822.06;;;9.95;61.24
49611;BME280;35515;48.766;9.176;2023-04-08T10:16:30;98824.53;;;10.12;60.57
49611;BME280;35515;48.766;9.176;2023-04-08T10:18:56;98825.94;;;10.08;60.98
49611;BME280;35515;48.766;9.176;2023-04-08T10:21:36;98826.09;;;10.06;61.25
49611;BME280;35515;48.766;9.176;2023-04-08T10:24:07;98822.13;;;10.02;61.57
49611;BME280;35515;48.766;9.176;2023-04-08T10:26:35;98821.28;;;10.23;59.92
49611;BME280;35515;48.766;9.176;2023-04-08T10:29:31;98826.38;;;10.11;59.14
49611;BME280;35515;48.766;9.176;2023-04-08T10:31:58;98824.06;;;10.08;59.01
49611;BME280;35515;48.766;9.176;2023-04-08T10:34:25;98818.84;;;10.07;60.08
49611;BME280;35515;48.766;9.176;2023-04-08T10:36:53;98825.28;;;10.06;60.70
49611;BME280;35515;48.766;9.176;2023-04-08T10:39:21;98824.63;;;10.25;60.08
49611;BME280;35515;48.766;9.176;2023-04-08T10:41:48;98824.59;;;10.18;59.11
49611;BME280;35515;48.766;9.176;2023-04-08T10:44:15;98824.31;;;10.13;59.50
49611;BME280;35515;48.766;9.176;2023-04-08T10:46:43;98831.59;;;10.13;58.29
49611;BME280;35515;48.766;9.176;2023-04-08T10:49:10;98827.53;;;10.02;58.25
49611;BME280;35515;48.766;9.176;2023-04-08T10:51:37;98825.75;;;10.09;58.51
49611;BME280;35515;48.766;9.176;2023-04-08T10:54:05;98828.19;;;10.04;58.07
49611;BME280;35515;48.766;9.176;2023-04-08T10:56:31;98819.28;;;9.88;58.78
49611;BME280;35515;48.766;9.176;2023-04-08T10:58:58;98825.97;;;9.93;58.16
49611;BME280;35515;48.766;9.176;2023-04-08T11:01:25;98815.16;;;9.93;58.56
49611;BME280;35515;48.766;9.176;2023-04-08T11:03:53;98821.97;;;10.10;57.83
49611;BME280;35515;48.766;9.176;2023-04-08T11:06:19;98826.66;;;9.95;58.84
49611;BME280;35515;48.766;9.176;2023-04-08T11:08:46;98818.31;;;9.96;58.19
49611;BME280;35515;48.766;9.176;2023-04-08T11:11:13;98823.94;;;9.95;58.21
49611;BME280;35515;48.766;9.176;2023-04-08T11:13:44;98822.56;;;10.06;56.82
49611;BME280;35515;48.766;9.176;2023-04-08T11:16:11;98831.53;;;10.06;56.25
49611;BME280;35515;48.766;9.176;2023-04-08T11:18:38;98824.56;;;9.97;56.57
49611;BME280;35515;48.766;9.176;2023-04-08T11:21:09;98818.84;;;9.85;56.54
49611;BME280;35515;48.766;9.176;2023-04-08T11:23:35;98814.50;;;10.12;55.65
49611;BME280;35515;48.766;9.176;2023-04-08T11:26:03;98825.69;;;10.02;56.29
49611;BME280;35515;48.766;9.176;2023-04-08T11:28:30;98816.69;;;10.02;57.11
49611;BME280;35515;48.766;9.176;2023-04-08T11:30:57;98818.13;;;9.98;57.52
49611;BME280;35515;48.766;9.176;2023-04-08T11:33:24;98824.81;;;10.02;57.60
49611;BME280;35515;48.766;9.176;2023-04-08T11:35:51;98822.91;;;10.17;55.06
49611;BME280;35515;48.766;9.176;2023-04-08T11:38:23;98819.47;;;10.09;56.09
49611;BME280;35515;48.766;9.176;2023-04-08T11:40:53;98816.91;;;10.00;56.59
49611;BME280;35515;48.766;9.176;2023-04-08T11:43:20;98818.13;;;9.98;57.09
49611;BME280;35515;48.766;9.176;2023-04-08T11:45:47;98823.66;;;10.11;55.65
49611;BME280;35515;48.766;9.176;2023-04-08T11:48:14;98821.16;;;10.10;55.65
49611;BME280;35515;48.766;9.176;2023-04-08T11:50:42;98813.63;;;10.05;56.25
49611;BME280;35515;48.766;9.176;2023-04-08T11:53:15;98819.28;;;10.10;56.11
49611;BME280;35515;48.766;9.176;2023-04-08T11:55:45;98816.97;;;10.07;56.52
49611;BME280;35515;48.766;9.176;2023-04-08T11:58:12;98815.53;;;10.11;56.66
49611;BME280;35515;48.766;9.176;2023-04-08T12:00:40;98818.25;;;10.11;56.09
49611;BME280;35515;48.766;9.176;2023-04-08T12:03:07;98812.56;;;10.06;56.01
49611;BME280;35515;48.766;9.176;2023-04-08T12:05:33;98820.97;;;10.11;56.39
49611;BME280;35515;48.766;9.176;2023-04-08T12:08:00;98815.81;;;10.16;56.56
49611;BME280;35515;48.766;9.176;2023-04-08T12:10:27;98818.66;;;10.08;57.35
49611;BME280;35515;48.766;9.176;2023-04-08T12:12:55;98820.69;;;10.06;56.78
49611;BME280;35515;48.766;9.176;2023-04-08T12:15:22;98816.13;;;10.07;57.28
49611;BME280;35515;48.766;9.176;2023-04-08T12:17:49;98826.00;;;10.14;57.26
49611;BME280;35515;48.766;9.176;2023-04-08T12:20:15;98828.13;;;10.19;57.70
49611;BME280;35515;48.766;9.176;2023-04-08T12:22:42;98829.00;;;10.04;58.72
49611;BME280;35515;48.766;9.176;2023-04-08T12:25:09;98835.22;;;9.98;59.30
49611;BME280;35515;48.766;9.176;2023-04-08T12:27:36;98825.78;;;9.94;58.77
49611;BME280;35515;48.766;9.176;2023-04-08T12:30:04;98827.59;;;9.87;59.35
49611;BME280;35515;48.766;9.176;2023-04-08T12:32:31;98820.47;;;10.01;58.67
49611;BME280;35515;48.766;9.176;2023-04-08T12:34:58;98823.66;;;10.11;57.54
49611;BME280;35515;48.766;9.176;2023-04-08T12:37:25;98829.13;;;10.18;56.82
49611;BME280;35515;48.766;9.176;2023-04-08T12:39:52;98827.28;;;10.18;56.50
49611;BME280;35515;48.766;9.176;2023-04-08T12:42:18;98824.06;;;10.08;57.57
49611;BME280;35515;48.766;9.176;2023-04-08T12:44:45;98825.22;;;10.20;57.06
49611;BME280;35515;48.766;9.176;2023-04-08T12:47:13;98822.75;;;10.26;56.67
49611;BME280;35515;48.766;9.176;2023-04-08T12:49:39;98823.97;;;10.23;56.57
49611;BME280;35515;48.766;9.176;2023-04-08T12:52:06;98825.06;;;10.29;56.17
49611;BME280;35515;48.766;9.176;2023-04-08T12:54:32;98823.91;;;10.16;57.00
49611;BME280;35515;48.766;9.176;2023-04-08T12:56:59;98820.31;;;10.09;57.61
49611;BME280;35515;48.766;9.176;2023-04-08T12:59:25;98822.97;;;10.24;56.54
49611;BME280;35515;48.766;9.176;2023-04-08T13:01:52;98817.28;;;10.19;57.17
49611;BME280;35515;48.766;9.176;2023-04-08T13:04:20;98824.19;;;10.21;56.62
49611;BME280;35515;48.766;9.176;2023-04-08T13:06:46;98826.22;;;10.19;56.72
49611;BME280;35515;48.766;9.176;2023-04-08T13:09:13;98823.41;;;10.06;57.58
49611;BME280;35515;48.766;9.176;2023-04-08T13:11:39;98829.47;;;10.08;57.39